sensor_id;sensor_type;location;lat;lon;timestamp;P1;durP1;ratioP1;P2;durP2;ratioP2
81170;SDS011;70644;44.818;20.478;2023-06-22T00:01:51;14.18;;;12.95;;
81170;SDS011;70644;44.818;20.478;2023-06-22T00:04:17;11.75;;;10.55;;
81170;SDS011;70644;44.818;20.478;2023-06-22T00:06:43;11.30;;;10.30;;
81170;SDS011;70644;44.818;20.478;2023-06-22T00:09:09;13.10;;;12.00;;
81170;SDS011;70644;44.818;20.478;2023-06-22T00:11:36;12.70;;;11.43;;
81170;SDS011;70644;44.818;20.478;2023-06-22T00:14:02;11.95;;;10.75;;
81170;SDS011;70644;44.818;20.478;2023-06-22T00:16:31;11.93;;;10.82;;
81170;SDS011;70644;44.818;20.478;2023-06-22T00:18:57;12.13;;;11.00;;
81170;SDS011;70644;44.818;20.478;2023-06-22T00:21:26;12.52;;;11.32;;
81170;SDS011;70644;44.818;20.478;2023-06-22T00:23:52;11.70;;;10.60;;
81170;SDS011;70644;44.818;20.478;2023-06-22T00:26:18;12.10;;;10.90;;
81170;SDS011;70644;44.818;20.478;2023-06-22T00:28:44;14.13;;;12.88;;
81170;SDS011;70644;44.818;20.478;2023-06-22T00:31:10;11.70;;;10.55;;
81170;SDS011;70644;44.818;20.478;2023-06-22T00:33:36;11.80;;;10.70;;
81170;SDS011;70644;44.818;20.478;2023-06-22T00:36:03;11.93;;;10.82;;
81170;SDS011;70644;44.818;20.478;2023-06-22T00:38:29;13.13;;;11.93;;
81170;SDS011;70644;44.818;20.478;2023-06-22T00:40:56;12.57;;;11.40;;
81170;SDS011;70644;44.818;20.478;2023-06-22T00:43:22;12.13;;;10.95;;
81170;SDS011;70644;44.818;20.478;2023-06-22T00:45:48;11.77;;;10.68;;
81170;SDS011;70644;44.818;20.478;2023-06-22T00:48:14;11.57;;;10.48;;
81170;SDS011;70644;44.818;20.478;2023-06-22T00:50:41;12.38;;;11.20;;
81170;SDS011;70644;44.818;20.478;2023-06-22T00:53:07;11.63;;;10.52;;
81170;SDS011;70644;44.818;20.478;2023-06-22T00:55:35;12.13;;;10.93;;
81170;SDS011;70644;44.818;20.478;2023-06-22T00:58:03;11.55;;;10.45;;
81170;SDS011;70644;44.818;20.478;2023-06-22T01:00:30;13.70;;;12.50;;
81170;SDS011;70644;44.818;20.478;2023-06-22T01:02:57;11.98;;;10.85;;
81170;SDS011;70644;44.818;20.478;2023-06-22T01:05:23;11.38;;;10.27;;
81170;SDS011;70644;44.818;20.478;2023-06-22T01:07:59;11.98;;;10.82;;
81170;SDS011;70644;44.818;20.478;2023-06-22T01:12:59;11.18;;;10.18;;
81170;SDS011;70644;44.818;20.478;2023-06-22T01:17:53;12.55;;;11.35;;
81170;SDS011;70644;44.818;20.478;2023-06-22T01:20:20;12.27;;;10.98;;
81170;SDS011;70644;44.818;20.478;2023-06-22T01:25:48;11.82;;;10.73;;
81170;SDS011;70644;44.818;20.478;2023-06-22T01:31:01;12.30;;;11.07;;
81170;SDS011;70644;44.818;20.478;2023-06-22T01:33:34;11.43;;;10.32;;
81170;SDS011;70644;44.818;20.478;2023-06-22T01:36:01;11.40;;;10.40;;
81170;SDS011;70644;44.818;20.478;2023-06-22T01:38:28;13.10;;;11.80;;
81170;SDS011;70644;44.818;20.478;2023-06-22T01:40:55;12.40;;;11.20;;
81170;SDS011;70644;44.818;20.478;2023-06-22T01:43:22;11.25;;;10.15;;
81170;SDS011;70644;44.818;20.478;2023-06-22T01:45:50;12.60;;;11.38;;
81170;SDS011;70644;44.818;20.478;2023-06-22T01:48:17;12.70;;;11.50;;
81170;SDS011;70644;44.818;20.478;2023-06-22T01:50:43;13.63;;;12.43;;
81170;SDS011;70644;44.818;20.478;2023-06-22T01:53:10;11.07;;;10.05;;
81170;SDS011;70644;44.818;20.478;2023-06-22T01:55:36;10.77;;;9.75;;
81170;SDS011;70644;44.818;20.478;2023-06-22T01:58:02;12.70;;;11.65;;
81170;SDS011;70644;44.818;20.478;2023-06-22T02:00:28;10.98;;;9.98;;
81170;SDS011;70644;44.818;20.478;2023-06-22T02:03:01;12.88;;;11.80;;
81170;SDS011;70644;44.818;20.478;2023-06-22T02:05:33;12.68;;;11.50;;
81170;SDS011;70644;44.818;20.478;2023-06-22T02:08:02;13.13;;;12.02;;
81170;SDS011;70644;44.818;20.478;2023-06-22T02:10:30;12.65;;;11.55;;
81170;SDS011;70644;44.818;20.478;2023-06-22T02:12:57;11.05;;;9.95;;
81170;SDS011;70644;44.818;20.478;2023-06-22T02:15:25;12.93;;;11.82;;
81170;SDS011;70644;44.818;20.478;2023-06-22T02:17:51;12.85;;;11.60;;
81170;SDS011;70644;44.818;20.478;2023-06-22T02:20:18;12.40;;;11.30;;
81170;SDS011;70644;44.818;20.478;2023-06-22T02:22:45;11.27;;;10.07;;
81170;SDS011;70644;44.818;20.478;2023-06-22T02:25:11;13.15;;;12.05;;
81170;SDS011;70644;44.818;20.478;2023-06-22T02:27:37;11.02;;;9.93;;
81170;SDS011;70644;44.818;20.478;2023-06-22T02:30:09;11.18;;;10.10;;
81170;SDS011;70644;44.818;20.478;2023-06-22T02:32:35;12.63;;;11.52;;
81170;SDS011;70644;44.818;20.478;2023-06-22T02:35:02;10.77;;;9.77;;
81170;SDS011;70644;44.818;20.478;2023-06-22T02:37:31;12.20;;;11.10;;
81170;SDS011;70644;44.818;20.478;2023-06-22T02:39:57;12.43;;;11.32;;
81170;SDS011;70644;44.818;20.478;2023-06-22T02:42:23;12.05;;;10.85;;
81170;SDS011;70644;44.818;20.478;2023-06-22T02:44:50;10.55;;;9.65;;
81170;SDS011;70644;44.818;20.478;2023-06-22T02:47:16;12.57;;;11.48;;
81170;SDS011;70644;44.818;20.478;2023-06-22T02:49:42;11.93;;;10.88;;
81170;SDS011;70644;44.818;20.478;2023-06-22T02:52:10;10.80;;;9.80;;
81170;SDS011;70644;44.818;20.478;2023-06-22T02:54:36;10.27;;;9.32;;
81170;SDS011;70644;44.818;20.478;2023-06-22T02:57:03;10.00;;;9.00;;
81170;SDS011;70644;44.818;20.478;2023-06-22T02:59:29;11.27;;;10.18;;
81170;SDS011;70644;44.818;20.478;2023-06-22T03:01:55;12.68;;;11.57;;
81170;SDS011;70644;44.818;20.478;2023-06-22T03:04:21;12.27;;;11.18;;
81170;SDS011;70644;44.818;20.478;2023-06-22T03:06:47;10.38;;;9.40;;
81170;SDS011;70644;44.818;20.478;2023-06-22T03:09:16;11.60;;;9.40;;
81170;SDS011;70644;44.818;20.478;2023-06-22T03:11:42;12.18;;;11.10;;
81170;SDS011;70644;44.818;20.478;2023-06-22T03:14:08;10.45;;;9.55;;
81170;SDS011;70644;44.818;20.478;2023-06-22T03:16:34;11.07;;;10.07;;
81170;SDS011;70644;44.818;20.478;2023-06-22T03:19:01;12.00;;;10.93;;
81170;SDS011;70644;44.818;20.478;2023-06-22T03:21:28;11.02;;;10.02;;
81170;SDS011;70644;44.818;20.478;2023-06-22T03:23:54;10.95;;;9.85;;
81170;SDS011;70644;44.818;20.478;2023-06-22T03:26:20;11.05;;;10.05;;
81170;SDS011;70644;44.818;20.478;2023-06-22T03:28:46;12.13;;;11.02;;
81170;SDS011;70644;44.818;20.478;2023-06-22T03:31:12;10.05;;;9.15;;
81170;SDS011;70644;44.818;20.478;2023-06-22T03:33:38;10.23;;;9.23;;
81170;SDS011;70644;44.818;20.478;2023-06-22T03:36:05;10.93;;;9.93;;
81170;SDS011;70644;44.818;20.478;2023-06-22T03:38:31;10.75;;;9.68;;
81170;SDS011;70644;44.818;20.478;2023-06-22T03:40:57;11.57;;;10.57;;
81170;SDS011;70644;44.818;20.478;2023-06-22T03:43:23;10.98;;;9.88;;
81170;SDS011;70644;44.818;20.478;2023-06-22T03:45:49;10.65;;;9.65;;
81170;SDS011;70644;44.818;20.478;2023-06-22T03:48:15;10.07;;;9.15;;
81170;SDS011;70644;44.818;20.478;2023-06-22T03:50:41;10.82;;;9.82;;
81170;SDS011;70644;44.818;20.478;2023-06-22T03:53:09;10.10;;;9.10;;
81170;SDS011;70644;44.818;20.478;2023-06-22T03:55:35;10.77;;;9.77;;
81170;SDS011;70644;44.818;20.478;2023-06-22T03:58:02;10.68;;;9.57;;
81170;SDS011;70644;44.818;20.478;2023-06-22T04:02:59;10.50;;;9.50;;
81170;SDS011;70644;44.818;20.478;2023-06-22T04:05:25;11.57;;;10.57;;
81170;SDS011;70644;44.818;20.478;2023-06-22T04:07:51;10.68;;;9.68;;
81170;SDS011;70644;44.818;20.478;2023-06-22T04:10:17;12.23;;;11.23;;
81170;SDS011;70644;44.818;20.478;2023-06-22T04:12:43;11.65;;;10.45;;
81170;SDS011;70644;44.818;20.478;2023-06-22T04:15:09;11.65;;;10.52;;
81170;SDS011;70644;44.818;20.478;2023-06-22T04:17:37;9.77;;;8.88;;
81170;SDS011;70644;44.818;20.478;2023-06-22T04:20:03;9.88;;;8.98;;
81170;SDS011;70644;44.818;20.478;2023-06-22T04:22:29;9.95;;;9.05;;
81170;SDS011;70644;44.818;20.478;2023-06-22T04:24:55;10.85;;;9.85;;
81170;SDS011;70644;44.818;20.478;2023-06-22T04:27:21;9.95;;;9.05;;
81170;SDS011;70644;44.818;20.478;2023-06-22T04:29:48;9.82;;;8.88;;
81170;SDS011;70644;44.818;20.478;2023-06-22T04:32:17;9.98;;;8.98;;
81170;SDS011;70644;44.818;20.478;2023-06-22T04:34:43;9.90;;;8.95;;
81170;SDS011;70644;44.818;20.478;2023-06-22T04:37:09;11.80;;;10.70;;
81170;SDS011;70644;44.818;20.478;2023-06-22T04:39:41;10.30;;;9.30;;
81170;SDS011;70644;44.818;20.478;2023-06-22T04:42:07;9.65;;;8.77;;
81170;SDS011;70644;44.818;20.478;2023-06-22T04:44:33;9.48;;;8.57;;
81170;SDS011;70644;44.818;20.478;2023-06-22T04:47:00;9.93;;;9.02;;
81170;SDS011;70644;44.818;20.478;2023-06-22T04:49:29;9.75;;;8.75;;
81170;SDS011;70644;44.818;20.478;2023-06-22T04:52:01;10.45;;;9.45;;
81170;SDS011;70644;44.818;20.478;2023-06-22T04:54:27;9.48;;;8.57;;
81170;SDS011;70644;44.818;20.478;2023-06-22T04:56:53;9.45;;;8.55;;
81170;SDS011;70644;44.818;20.478;2023-06-22T04:59:23;9.32;;;8.52;;
81170;SDS011;70644;44.818;20.478;2023-06-22T05:01:57;9.40;;;8.50;;
81170;SDS011;70644;44.818;20.478;2023-06-22T05:04:25;9.18;;;8.27;;
81170;SDS011;70644;44.818;20.478;2023-06-22T05:06:52;9.77;;;8.77;;
81170;SDS011;70644;44.818;20.478;2023-06-22T05:09:18;9.10;;;8.23;;
81170;SDS011;70644;44.818;20.478;2023-06-22T05:11:45;9.48;;;8.57;;
81170;SDS011;70644;44.818;20.478;2023-06-22T05:14:11;9.40;;;8.50;;
81170;SDS011;70644;44.818;20.478;2023-06-22T05:16:37;9.55;;;8.65;;
81170;SDS011;70644;44.818;20.478;2023-06-22T05:19:04;9.60;;;8.70;;
81170;SDS011;70644;44.818;20.478;2023-06-22T05:21:30;9.30;;;8.38;;
81170;SDS011;70644;44.818;20.478;2023-06-22T05:23:57;8.98;;;8.13;;
81170;SDS011;70644;44.818;20.478;2023-06-22T05:26:29;9.43;;;8.52;;
81170;SDS011;70644;44.818;20.478;2023-06-22T05:28:55;8.13;;;7.32;;
81170;SDS011;70644;44.818;20.478;2023-06-22T05:31:22;9.23;;;8.32;;
81170;SDS011;70644;44.818;20.478;2023-06-22T05:33:48;9.07;;;8.25;;
81170;SDS011;70644;44.818;20.478;2023-06-22T05:36:14;8.90;;;8.10;;
81170;SDS011;70644;44.818;20.478;2023-06-22T05:38:41;9.93;;;9.10;;
81170;SDS011;70644;44.818;20.478;2023-06-22T05:41:07;9.48;;;8.60;;
81170;SDS011;70644;44.818;20.478;2023-06-22T05:43:33;8.40;;;7.60;;
81170;SDS011;70644;44.818;20.478;2023-06-22T05:46:00;8.32;;;7.53;;
81170;SDS011;70644;44.818;20.478;2023-06-22T05:48:26;9.50;;;8.70;;
81170;SDS011;70644;44.818;20.478;2023-06-22T05:50:53;9.32;;;8.43;;
81170;SDS011;70644;44.818;20.478;2023-06-22T05:53:19;9.32;;;7.78;;
81170;SDS011;70644;44.818;20.478;2023-06-22T05:55:46;9.35;;;8.55;;
81170;SDS011;70644;44.818;20.478;2023-06-22T05:58:12;9.55;;;8.70;;
81170;SDS011;70644;44.818;20.478;2023-06-22T06:00:40;7.93;;;7.13;;
81170;SDS011;70644;44.818;20.478;2023-06-22T06:03:08;9.18;;;8.38;;
81170;SDS011;70644;44.818;20.478;2023-06-22T06:05:34;9.25;;;8.43;;
81170;SDS011;70644;44.818;20.478;2023-06-22T06:08:01;7.85;;;7.07;;
81170;SDS011;70644;44.818;20.478;2023-06-22T06:10:28;8.40;;;7.55;;
81170;SDS011;70644;44.818;20.478;2023-06-22T06:12:57;9.35;;;8.35;;
81170;SDS011;70644;44.818;20.478;2023-06-22T06:15:23;8.13;;;7.32;;
81170;SDS011;70644;44.818;20.478;2023-06-22T06:17:52;8.05;;;7.25;;
81170;SDS011;70644;44.818;20.478;2023-06-22T06:20:19;7.20;;;6.50;;
81170;SDS011;70644;44.818;20.478;2023-06-22T06:22:46;9.50;;;8.52;;
81170;SDS011;70644;44.818;20.478;2023-06-22T06:25:12;8.40;;;7.65;;
81170;SDS011;70644;44.818;20.478;2023-06-22T06:27:47;9.27;;;7.57;;
81170;SDS011;70644;44.818;20.478;2023-06-22T06:30:15;9.40;;;8.50;;
81170;SDS011;70644;44.818;20.478;2023-06-22T06:32:42;9.82;;;8.93;;
81170;SDS011;70644;44.818;20.478;2023-06-22T06:35:08;9.63;;;7.18;;
81170;SDS011;70644;44.818;20.478;2023-06-22T06:37:41;9.52;;;8.57;;
81170;SDS011;70644;44.818;20.478;2023-06-22T06:40:08;8.75;;;7.85;;
81170;SDS011;70644;44.818;20.478;2023-06-22T06:42:36;9.23;;;8.35;;
81170;SDS011;70644;44.818;20.478;2023-06-22T06:45:04;8.15;;;6.68;;
81170;SDS011;70644;44.818;20.478;2023-06-22T06:47:30;9.48;;;8.07;;
81170;SDS011;70644;44.818;20.478;2023-06-22T06:49:56;8.35;;;7.15;;
81170;SDS011;70644;44.818;20.478;2023-06-22T06:52:22;15.35;;;10.82;;
81170;SDS011;70644;44.818;20.478;2023-06-22T06:54:48;10.05;;;8.95;;
81170;SDS011;70644;44.818;20.478;2023-06-22T06:57:16;10.23;;;8.52;;
81170;SDS011;70644;44.818;20.478;2023-06-22T06:59:42;9.55;;;8.30;;
81170;SDS011;70644;44.818;20.478;2023-06-22T07:02:09;10.73;;;9.73;;
81170;SDS011;70644;44.818;20.478;2023-06-22T07:04:35;11.77;;;9.90;;
81170;SDS011;70644;44.818;20.478;2023-06-22T07:07:01;10.45;;;8.25;;
81170;SDS011;70644;44.818;20.478;2023-06-22T07:09:28;10.73;;;9.65;;
81170;SDS011;70644;44.818;20.478;2023-06-22T07:11:54;9.50;;;8.50;;
81170;SDS011;70644;44.818;20.478;2023-06-22T07:14:20;12.20;;;9.20;;
81170;SDS011;70644;44.818;20.478;2023-06-22T07:16:46;9.63;;;7.88;;
81170;SDS011;70644;44.818;20.478;2023-06-22T07:19:12;10.38;;;7.90;;
81170;SDS011;70644;44.818;20.478;2023-06-22T07:21:38;11.52;;;9.88;;
81170;SDS011;70644;44.818;20.478;2023-06-22T07:24:05;10.57;;;9.48;;
81170;SDS011;70644;44.818;20.478;2023-06-22T07:26:31;12.15;;;9.48;;
81170;SDS011;70644;44.818;20.478;2023-06-22T07:28:57;11.57;;;10.38;;
81170;SDS011;70644;44.818;20.478;2023-06-22T07:31:24;10.85;;;9.73;;
81170;SDS011;70644;44.818;20.478;2023-06-22T07:33:50;10.05;;;8.02;;
81170;SDS011;70644;44.818;20.478;2023-06-22T07:36:17;10.32;;;8.75;;
81170;SDS011;70644;44.818;20.478;2023-06-22T07:38:43;9.40;;;7.80;;
81170;SDS011;70644;44.818;20.478;2023-06-22T07:41:09;11.68;;;9.27;;
81170;SDS011;70644;44.818;20.478;2023-06-22T07:43:36;9.65;;;7.85;;
81170;SDS011;70644;44.818;20.478;2023-06-22T07:46:02;11.15;;;9.57;;
81170;SDS011;70644;44.818;20.478;2023-06-22T07:48:28;9.80;;;8.90;;
81170;SDS011;70644;44.818;20.478;2023-06-22T07:50:55;10.70;;;9.13;;
81170;SDS011;70644;44.818;20.478;2023-06-22T07:53:21;10.07;;;9.07;;
81170;SDS011;70644;44.818;20.478;2023-06-22T07:55:48;9.27;;;8.38;;
81170;SDS011;70644;44.818;20.478;2023-06-22T07:58:14;8.60;;;7.70;;
81170;SDS011;70644;44.818;20.478;2023-06-22T08:00:41;9.70;;;8.70;;
81170;SDS011;70644;44.818;20.478;2023-06-22T08:03:07;9.95;;;8.98;;
81170;SDS011;70644;44.818;20.478;2023-06-22T08:05:33;10.32;;;9.00;;
81170;SDS011;70644;44.818;20.478;2023-06-22T08:07:59;8.68;;;7.43;;
81170;SDS011;70644;44.818;20.478;2023-06-22T08:10:25;9.40;;;8.40;;
81170;SDS011;70644;44.818;20.478;2023-06-22T08:12:51;10.00;;;9.10;;
81170;SDS011;70644;44.818;20.478;2023-06-22T08:15:17;8.15;;;7.22;;
81170;SDS011;70644;44.818;20.478;2023-06-22T08:17:44;9.43;;;8.15;;
81170;SDS011;70644;44.818;20.478;2023-06-22T08:20:13;10.65;;;8.68;;
81170;SDS011;70644;44.818;20.478;2023-06-22T08:22:40;9.10;;;7.63;;
81170;SDS011;70644;44.818;20.478;2023-06-22T08:25:06;9.35;;;7.55;;
81170;SDS011;70644;44.818;20.478;2023-06-22T08:27:33;10.02;;;8.00;;
81170;SDS011;70644;44.818;20.478;2023-06-22T08:29:59;11.20;;;9.40;;
81170;SDS011;70644;44.818;20.478;2023-06-22T08:32:27;13.25;;;9.98;;
81170;SDS011;70644;44.818;20.478;2023-06-22T08:34:53;11.88;;;8.57;;
81170;SDS011;70644;44.818;20.478;2023-06-22T08:37:20;10.77;;;9.75;;
81170;SDS011;70644;44.818;20.478;2023-06-22T08:42:15;10.85;;;9.75;;
81170;SDS011;70644;44.818;20.478;2023-06-22T08:44:41;13.10;;;10.43;;
81170;SDS011;70644;44.818;20.478;2023-06-22T08:47:07;11.63;;;10.43;;
81170;SDS011;70644;44.818;20.478;2023-06-22T08:49:33;12.63;;;9.70;;
81170;SDS011;70644;44.818;20.478;2023-06-22T08:51:59;12.20;;;9.93;;
81170;SDS011;70644;44.818;20.478;2023-06-22T08:54:25;15.15;;;11.05;;
81170;SDS011;70644;44.818;20.478;2023-06-22T08:56:51;12.98;;;10.05;;
81170;SDS011;70644;44.818;20.478;2023-06-22T08:59:17;14.40;;;10.80;;
81170;SDS011;70644;44.818;20.478;2023-06-22T09:01:43;13.63;;;10.95;;
81170;SDS011;70644;44.818;20.478;2023-06-22T09:04:14;14.90;;;11.73;;
81170;SDS011;70644;44.818;20.478;2023-06-22T09:06:40;13.80;;;11.07;;
81170;SDS011;70644;44.818;20.478;2023-06-22T09:09:10;13.90;;;12.50;;
81170;SDS011;70644;44.818;20.478;2023-06-22T09:11:36;13.48;;;11.85;;
81170;SDS011;70644;44.818;20.478;2023-06-22T09:14:02;13.20;;;10.52;;
81170;SDS011;70644;44.818;20.478;2023-06-22T09:16:29;13.07;;;11.73;;
81170;SDS011;70644;44.818;20.478;2023-06-22T09:18:55;13.00;;;11.70;;
81170;SDS011;70644;44.818;20.478;2023-06-22T09:21:22;11.15;;;9.95;;
81170;SDS011;70644;44.818;20.478;2023-06-22T09:23:49;12.38;;;11.15;;
81170;SDS011;70644;44.818;20.478;2023-06-22T09:26:18;13.00;;;9.85;;
81170;SDS011;70644;44.818;20.478;2023-06-22T09:28:44;11.80;;;9.40;;
81170;SDS011;70644;44.818;20.478;2023-06-22T09:31:10;12.52;;;11.23;;
81170;SDS011;70644;44.818;20.478;2023-06-22T09:33:36;11.68;;;10.00;;
81170;SDS011;70644;44.818;20.478;2023-06-22T09:36:04;11.68;;;10.55;;
81170;SDS011;70644;44.818;20.478;2023-06-22T09:38:34;12.02;;;10.00;;
81170;SDS011;70644;44.818;20.478;2023-06-22T09:41:00;13.13;;;11.65;;
81170;SDS011;70644;44.818;20.478;2023-06-22T09:43:27;13.23;;;11.77;;
81170;SDS011;70644;44.818;20.478;2023-06-22T09:45:53;12.18;;;10.80;;
81170;SDS011;70644;44.818;20.478;2023-06-22T09:48:19;10.85;;;9.75;;
81170;SDS011;70644;44.818;20.478;2023-06-22T09:50:47;12.73;;;11.40;;
81170;SDS011;70644;44.818;20.478;2023-06-22T09:53:13;12.40;;;11.13;;
81170;SDS011;70644;44.818;20.478;2023-06-22T09:55:40;11.70;;;10.60;;
81170;SDS011;70644;44.818;20.478;2023-06-22T09:58:06;11.82;;;10.63;;
81170;SDS011;70644;44.818;20.478;2023-06-22T10:00:38;11.80;;;10.63;;
81170;SDS011;70644;44.818;20.478;2023-06-22T10:03:06;12.60;;;10.65;;
81170;SDS011;70644;44.818;20.478;2023-06-22T10:05:32;11.27;;;10.18;;
81170;SDS011;70644;44.818;20.478;2023-06-22T10:07:58;10.60;;;9.52;;
81170;SDS011;70644;44.818;20.478;2023-06-22T10:10:25;12.15;;;10.75;;
81170;SDS011;70644;44.818;20.478;2023-06-22T10:12:57;11.57;;;10.48;;
81170;SDS011;70644;44.818;20.478;2023-06-22T10:15:23;11.82;;;10.52;;
81170;SDS011;70644;44.818;20.478;2023-06-22T10:17:52;11.57;;;10.48;;
81170;SDS011;70644;44.818;20.478;2023-06-22T10:20:18;12.25;;;10.98;;
81170;SDS011;70644;44.818;20.478;2023-06-22T10:22:45;11.07;;;9.18;;
81170;SDS011;70644;44.818;20.478;2023-06-22T10:25:12;12.27;;;11.05;;
81170;SDS011;70644;44.818;20.478;2023-06-22T10:27:39;11.65;;;10.32;;
81170;SDS011;70644;44.818;20.478;2023-06-22T10:30:06;12.43;;;11.25;;
81170;SDS011;70644;44.818;20.478;2023-06-22T10:32:32;12.57;;;10.60;;
81170;SDS011;70644;44.818;20.478;2023-06-22T10:34:58;12.65;;;11.45;;
81170;SDS011;70644;44.818;20.478;2023-06-22T10:37:24;11.88;;;10.75;;
81170;SDS011;70644;44.818;20.478;2023-06-22T10:39:50;11.00;;;9.07;;
81170;SDS011;70644;44.818;20.478;2023-06-22T10:42:16;12.07;;;10.88;;
81170;SDS011;70644;44.818;20.478;2023-06-22T10:44:42;10.00;;;8.57;;
81170;SDS011;70644;44.818;20.478;2023-06-22T10:47:09;11.50;;;10.35;;
81170;SDS011;70644;44.818;20.478;2023-06-22T10:49:37;10.45;;;9.15;;
81170;SDS011;70644;44.818;20.478;2023-06-22T10:52:03;10.80;;;9.70;;
81170;SDS011;70644;44.818;20.478;2023-06-22T10:54:29;12.73;;;10.90;;
81170;SDS011;70644;44.818;20.478;2023-06-22T10:56:56;10.60;;;8.77;;
81170;SDS011;70644;44.818;20.478;2023-06-22T10:59:23;11.20;;;9.25;;
81170;SDS011;70644;44.818;20.478;2023-06-22T11:04:16;9.68;;;8.68;;
81170;SDS011;70644;44.818;20.478;2023-06-22T11:06:43;11.32;;;10.23;;
81170;SDS011;70644;44.818;20.478;2023-06-22T11:09:09;12.15;;;10.88;;
81170;SDS011;70644;44.818;20.478;2023-06-22T11:11:35;10.02;;;8.73;;
81170;SDS011;70644;44.818;20.478;2023-06-22T11:14:03;13.93;;;10.93;;
81170;SDS011;70644;44.818;20.478;2023-06-22T11:16:29;15.30;;;9.02;;
81170;SDS011;70644;44.818;20.478;2023-06-22T11:18:55;14.40;;;10.77;;
81170;SDS011;70644;44.818;20.478;2023-06-22T11:21:21;11.98;;;10.20;;
81170;SDS011;70644;44.818;20.478;2023-06-22T11:23:47;14.40;;;9.77;;
81170;SDS011;70644;44.818;20.478;2023-06-22T11:26:13;11.90;;;9.07;;
81170;SDS011;70644;44.818;20.478;2023-06-22T11:28:39;16.02;;;11.70;;
81170;SDS011;70644;44.818;20.478;2023-06-22T11:31:05;14.02;;;10.20;;
81170;SDS011;70644;44.818;20.478;2023-06-22T11:33:32;16.20;;;11.40;;
81170;SDS011;70644;44.818;20.478;2023-06-22T11:35:58;14.70;;;12.10;;
81170;SDS011;70644;44.818;20.478;2023-06-22T11:38:25;15.93;;;12.43;;
81170;SDS011;70644;44.818;20.478;2023-06-22T11:40:51;17.77;;;12.20;;
81170;SDS011;70644;44.818;20.478;2023-06-22T11:43:17;13.57;;;12.25;;
81170;SDS011;70644;44.818;20.478;2023-06-22T11:45:43;14.80;;;11.48;;
81170;SDS011;70644;44.818;20.478;2023-06-22T11:48:09;14.27;;;11.85;;
81170;SDS011;70644;44.818;20.478;2023-06-22T11:50:35;12.52;;;11.32;;
81170;SDS011;70644;44.818;20.478;2023-06-22T11:53:02;14.63;;;12.70;;
81170;SDS011;70644;44.818;20.478;2023-06-22T11:55:29;14.25;;;10.98;;
81170;SDS011;70644;44.818;20.478;2023-06-22T11:57:55;12.73;;;11.13;;
81170;SDS011;70644;44.818;20.478;2023-06-22T12:00:24;13.20;;;11.65;;
81170;SDS011;70644;44.818;20.478;2023-06-22T12:02:51;12.25;;;10.95;;
81170;SDS011;70644;44.818;20.478;2023-06-22T12:05:21;15.18;;;13.70;;
81170;SDS011;70644;44.818;20.478;2023-06-22T12:07:49;14.82;;;13.32;;
81170;SDS011;70644;44.818;20.478;2023-06-22T12:10:15;13.32;;;11.75;;
81170;SDS011;70644;44.818;20.478;2023-06-22T12:12:41;16.05;;;14.43;;
81170;SDS011;70644;44.818;20.478;2023-06-22T12:15:10;15.98;;;14.50;;
81170;SDS011;70644;44.818;20.478;2023-06-22T12:17:37;16.38;;;13.05;;
81170;SDS011;70644;44.818;20.478;2023-06-22T12:20:03;15.63;;;14.10;;
81170;SDS011;70644;44.818;20.478;2023-06-22T12:22:31;17.02;;;15.30;;
81170;SDS011;70644;44.818;20.478;2023-06-22T12:24:57;16.02;;;14.48;;
81170;SDS011;70644;44.818;20.478;2023-06-22T12:27:23;16.42;;;14.80;;
81170;SDS011;70644;44.818;20.478;2023-06-22T12:29:49;15.73;;;14.23;;
81170;SDS011;70644;44.818;20.478;2023-06-22T12:32:15;14.07;;;12.40;;
81170;SDS011;70644;44.818;20.478;2023-06-22T12:34:42;14.02;;;12.65;;
81170;SDS011;70644;44.818;20.478;2023-06-22T12:37:08;16.52;;;13.95;;
81170;SDS011;70644;44.818;20.478;2023-06-22T12:39:34;15.25;;;12.32;;
81170;SDS011;70644;44.818;20.478;2023-06-22T12:42:00;14.43;;;13.02;;
81170;SDS011;70644;44.818;20.478;2023-06-22T12:44:27;15.95;;;13.45;;
81170;SDS011;70644;44.818;20.478;2023-06-22T12:46:53;13.77;;;12.38;;
81170;SDS011;70644;44.818;20.478;2023-06-22T12:49:19;15.73;;;14.23;;
81170;SDS011;70644;44.818;20.478;2023-06-22T12:51:45;13.73;;;12.32;;
81170;SDS011;70644;44.818;20.478;2023-06-22T12:54:11;14.73;;;12.50;;
81170;SDS011;70644;44.818;20.478;2023-06-22T12:56:38;15.32;;;13.93;;
81170;SDS011;70644;44.818;20.478;2023-06-22T12:59:04;15.63;;;12.98;;
81170;SDS011;70644;44.818;20.478;2023-06-22T13:01:31;13.88;;;12.38;;
81170;SDS011;70644;44.818;20.478;2023-06-22T13:04:00;13.93;;;11.98;;
81170;SDS011;70644;44.818;20.478;2023-06-22T13:08:52;13.70;;;11.55;;
81170;SDS011;70644;44.818;20.478;2023-06-22T13:11:18;15.50;;;14.00;;
81170;SDS011;70644;44.818;20.478;2023-06-22T13:13:44;15.55;;;12.10;;
81170;SDS011;70644;44.818;20.478;2023-06-22T13:16:11;13.85;;;12.07;;
81170;SDS011;70644;44.818;20.478;2023-06-22T13:18:37;14.20;;;12.18;;
81170;SDS011;70644;44.818;20.478;2023-06-22T13:21:04;13.70;;;12.15;;
81170;SDS011;70644;44.818;20.478;2023-06-22T13:23:30;13.88;;;12.00;;
81170;SDS011;70644;44.818;20.478;2023-06-22T13:25:57;14.10;;;12.65;;
81170;SDS011;70644;44.818;20.478;2023-06-22T13:28:23;16.00;;;14.32;;
81170;SDS011;70644;44.818;20.478;2023-06-22T13:30:49;15.35;;;12.82;;
81170;SDS011;70644;44.818;20.478;2023-06-22T13:33:16;16.23;;;14.60;;
81170;SDS011;70644;44.818;20.478;2023-06-22T13:35:42;15.27;;;13.32;;
81170;SDS011;70644;44.818;20.478;2023-06-22T13:38:08;15.27;;;12.55;;
81170;SDS011;70644;44.818;20.478;2023-06-22T13:40:35;16.55;;;13.77;;
81170;SDS011;70644;44.818;20.478;2023-06-22T13:43:03;15.93;;;14.05;;
81170;SDS011;70644;44.818;20.478;2023-06-22T13:45:29;17.02;;;15.32;;
81170;SDS011;70644;44.818;20.478;2023-06-22T13:47:55;17.15;;;15.25;;
81170;SDS011;70644;44.818;20.478;2023-06-22T13:50:21;15.48;;;13.82;;
81170;SDS011;70644;44.818;20.478;2023-06-22T13:52:47;17.02;;;15.30;;
81170;SDS011;70644;44.818;20.478;2023-06-22T13:55:13;17.23;;;13.98;;
81170;SDS011;70644;44.818;20.478;2023-06-22T13:57:40;15.55;;;13.95;;
81170;SDS011;70644;44.818;20.478;2023-06-22T14:00:07;17.95;;;16.13;;
81170;SDS011;70644;44.818;20.478;2023-06-22T14:02:33;18.17;;;16.38;;
81170;SDS011;70644;44.818;20.478;2023-06-22T14:05:00;17.73;;;15.95;;
81170;SDS011;70644;44.818;20.478;2023-06-22T14:07:27;15.93;;;14.20;;
81170;SDS011;70644;44.818;20.478;2023-06-22T14:09:53;16.00;;;14.32;;
81170;SDS011;70644;44.818;20.478;2023-06-22T14:12:19;16.73;;;15.00;;
81170;SDS011;70644;44.818;20.478;2023-06-22T14:14:45;17.95;;;16.15;;
81170;SDS011;70644;44.818;20.478;2023-06-22T14:17:11;19.67;;;17.77;;
81170;SDS011;70644;44.818;20.478;2023-06-22T14:19:38;18.85;;;16.42;;
81170;SDS011;70644;44.818;20.478;2023-06-22T14:22:04;18.90;;;15.65;;
81170;SDS011;70644;44.818;20.478;2023-06-22T14:24:31;18.02;;;16.33;;
81170;SDS011;70644;44.818;20.478;2023-06-22T14:26:58;18.80;;;16.77;;
81170;SDS011;70644;44.818;20.478;2023-06-22T14:29:28;18.98;;;17.08;;
81170;SDS011;70644;44.818;20.478;2023-06-22T14:31:54;20.60;;;18.70;;
81170;SDS011;70644;44.818;20.478;2023-06-22T14:34:20;18.48;;;16.55;;